Latest Weather Observations for Eliwana Airport

IDW60801

Issued at 10:53 pm WST Friday 16 April 2021 (issued every 10 minutes, with the page automatically refreshed every 10 minutes)

About weather observations | Map of weather stations | Latest weather observations for WA | Other Formats
Station Details ID: 505063 Name: ELIWANA AIRPORT Lat: -22.43 Lon: 116.89 Height: 481.07 m
Data from the previous 72 hours. | See also: Recent months for locations in Western Australia
Date/Time
WST
Temp
°C
App
Temp
°C
Dew
Point
°C
Rel
Hum
%
Delta-T
°C
Wind Press
QNH
hPa
Press
MSL
hPa
Rain since
9am
mm
Dir  Spd
km/h
Gust
km/h
Spd
kts
Gust
kts
16/10:30pm 23.1 23.5 15.2 61 4.8 E 7 9 4 5 1019.8 - 0.0
16/10:00pm 23.2 23.6 14.7 58 5.1 SSE 6 9 3 5 1019.7 - 0.0
16/09:30pm 23.4 23.7 14.4 57 5.4 W 6 9 3 5 1019.7 - 0.0
16/09:00pm 24.4 24.8 15.3 57 5.6 ENE 7 9 4 5 1019.7 - 0.0
16/08:30pm 24.6 24.7 13.8 51 6.5 ESE 6 7 3 4 1019.4 - 0.0
16/08:00pm 25.0 25.7 13.5 48 6.9 WSW 2 4 1 2 1018.9 - 0.0
16/07:30pm 25.7 25.6 13.2 46 7.5 S 6 9 3 5 1018.6 - 0.0
16/07:00pm 26.5 25.4 11.8 40 8.6 S 9 9 5 5 1018.3 - 0.0
16/06:30pm 27.4 26.0 11.0 36 9.5 S 9 11 5 6 1018.1 - 0.0
16/06:00pm 28.6 28.0 10.3 32 10.5 SSE 4 6 2 3 1017.8 - 0.0
16/05:30pm 29.3 28.1 9.4 29 11.3 SSE 6 11 3 6 1017.6 - 0.0
16/05:00pm 29.8 29.4 9.9 29 11.4 E 2 6 1 3 1017.3 - 0.0
16/04:30pm 29.8 28.9 9.3 28 11.7 E 4 9 2 5 1017.2 - 0.0
16/04:00pm 29.8 28.5 9.9 29 11.4 E 7 17 4 9 1017.1 - 0.0
16/03:30pm 29.6 28.1 9.2 28 11.6 SSE 7 15 4 8 1017.1 - 0.0
16/03:00pm 29.5 27.9 10.1 30 11.2 NE 9 17 5 9 1017.0 - 0.0
16/02:30pm 29.3 27.9 9.4 29 11.3 E 7 15 4 8 1017.1 - 0.0
16/02:00pm 29.0 28.1 10.6 32 10.7 ENE 6 19 3 10 1017.2 - 0.0
16/01:30pm 28.4 26.6 9.6 31 10.7 NNE 9 15 5 8 1017.6 - 0.0
16/01:00pm 28.4 25.5 9.6 31 10.7 NNE 15 24 8 13 1017.8 - 0.0
16/12:30pm 27.6 25.3 10.3 34 9.9 NE 13 22 7 12 1018.1 - 0.0
16/12:00pm 27.0 25.2 10.7 36 9.4 ENE 11 19 6 10 1018.6 - 0.0
16/11:30am 26.4 23.5 10.9 38 8.9 ENE 17 22 9 12 1019.2 - 0.0
16/11:00am 25.4 22.3 10.4 39 8.5 E 17 20 9 11 1019.6 - 0.0
16/10:30am 25.1 21.1 10.6 40 8.3 ENE 22 30 12 16 1020.0 - 0.0
16/10:00am 24.1 18.8 10.0 41 7.9 ENE 28 33 15 18 1020.2 - 0.0
16/09:30am 23.4 18.9 10.1 43 7.5 ENE 24 32 13 17 1020.4 - 0.0
16/09:00am 22.7 18.2 10.2 45 7.0 ENE 24 32 13 17 1020.4 - 0.0
16/08:30am 21.9 17.0 10.1 47 6.6 ENE 26 32 14 17 1020.2 - 0.0
16/08:00am 20.5 18.3 12.0 58 4.8 E 15 19 8 10 1020.2 - 0.0
16/07:30am 19.7 17.5 12.0 61 4.4 ENE 15 20 8 11 1019.9 - 0.0
16/07:00am 18.4 16.9 13.1 71 3.0 ENE 13 15 7 8 1019.6 - 0.0
16/06:30am 18.1 17.1 13.4 74 2.7 E 11 13 6 7 1019.2 - 0.0
16/06:00am 18.3 17.4 13.6 74 2.7 ENE 11 15 6 8 1018.8 - 0.0
16/05:30am 18.2 17.4 14.1 77 2.4 ENE 11 13 6 7 1018.6 - 0.0
16/05:00am 18.8 17.9 13.6 72 3.0 E 11 13 6 7 1018.4 - 0.0
16/04:30am 18.8 18.5 14.3 75 2.7 E 9 11 5 6 1018.4 - 0.0
16/04:00am 18.7 18.5 14.8 78 2.3 ESE 9 11 5 6 1018.2 - 0.0
16/03:30am 19.2 19.2 15.3 78 2.3 E 9 11 5 6 1018.3 - 0.0
16/03:00am 19.5 19.3 15.6 78 2.4 E 11 13 6 7 1018.3 - 0.0
16/02:30am 19.7 19.6 16.0 79 2.3 E 11 11 6 6 1018.5 - 0.0
16/02:00am 19.9 20.7 16.3 80 2.2 E 7 9 4 5 1018.5 - 0.0
16/01:30am 20.5 21.2 16.1 76 2.7 E 7 11 4 6 1018.6 - 0.0
16/01:00am 20.4 20.3 16.0 76 2.7 E 11 13 6 7 1018.5 - 0.0
16/12:30am 21.0 20.7 15.5 71 3.3 E 11 13 6 7 1018.6 - 0.0
16/12:00am 21.4 21.1 15.5 69 3.6 E 11 13 6 7 1018.8 - 0.0
 
Date/Time
WST
Temp
°C
App
Temp
°C
Dew
Point
°C
Rel
Hum
%
Delta-T
°C
Wind Press
QNH
hPa
Press
MSL
hPa
Rain since
9am
mm
Dir  Spd
km/h
Gust
km/h
Spd
kts
Gust
kts
15/11:30pm 21.9 21.4 15.0 65 4.2 E 11 13 6 7 1018.7 - 0.0
15/11:00pm 22.2 21.8 15.3 65 4.2 ESE 11 15 6 8 1018.7 - 0.0
15/10:30pm 22.6 23.0 15.2 63 4.5 ENE 7 11 4 6 1018.7 - 0.0
15/10:00pm 23.0 23.2 14.8 60 5.0 NE 7 9 4 5 1018.9 - 0.0
15/09:30pm 23.2 23.5 14.5 58 5.2 ENE 6 6 3 3 1018.7 - 0.0
15/09:00pm 24.1 23.5 13.6 52 6.3 ESE 9 11 5 6 1018.6 - 0.0
15/08:30pm 24.3 23.4 13.8 52 6.3 ESE 11 13 6 7 1018.4 - 0.0
15/08:00pm 24.6 23.7 13.8 51 6.5 SE 11 15 6 8 1018.2 - 0.0
15/07:30pm 24.9 24.2 14.4 52 6.4 SE 11 13 6 7 1017.9 - 0.0
15/07:00pm 25.3 24.2 14.4 50 6.6 SE 13 15 7 8 1017.6 - 0.0
15/06:30pm 26.0 25.5 14.8 50 6.9 SSE 11 15 6 8 1017.4 - 0.0
15/06:00pm 27.1 26.5 14.5 46 7.7 SSE 11 15 6 8 1017.0 - 0.0
15/05:30pm 27.9 26.5 13.4 40 8.8 SE 13 17 7 9 1016.6 - 0.0
15/05:00pm 28.7 27.3 14.5 42 8.7 SE 15 19 8 10 1016.4 - 0.0
15/04:30pm 28.7 27.2 14.1 40 8.9 SE 15 28 8 15 1016.3 - 0.0
15/04:00pm 29.2 28.6 14.6 41 9.0 E 11 19 6 10 1016.3 - 0.0
15/03:30pm 28.8 27.8 14.6 42 8.8 E 13 19 7 10 1016.2 - 0.0
15/03:00pm 28.9 27.7 15.1 43 8.6 E 15 26 8 14 1016.2 - 0.0
15/02:30pm 28.4 27.6 15.0 44 8.3 ESE 13 22 7 12 1016.3 - 0.0
15/02:00pm 28.1 26.0 14.7 44 8.3 ESE 19 26 10 14 1016.4 - 0.0
15/01:30pm 27.8 26.2 16.1 49 7.4 ESE 19 26 10 14 1016.7 - 0.0
15/01:00pm 27.3 25.8 16.3 51 6.9 E 19 24 10 13 1017.1 - 0.0
15/12:30pm 26.8 25.6 17.0 55 6.2 ESE 19 26 10 14 1017.5 - 0.0
15/12:00pm 26.3 25.5 17.1 57 5.8 ESE 17 26 9 14 1017.8 - 0.0
15/11:30am 26.1 24.7 16.9 57 5.8 ESE 20 28 11 15 1018.2 - 0.0
15/11:00am 25.4 24.0 17.1 60 5.2 E 20 28 11 15 1018.7 - 0.0
15/10:30am 24.8 24.1 18.3 67 4.2 E 19 28 10 15 1018.9 - 0.0
15/10:00am 24.2 23.4 17.9 68 4.0 ESE 19 28 10 15 1019.2 - 0.0
15/09:30am 23.2 22.2 17.9 72 3.4 ESE 20 26 11 14 1019.2 - 0.0
15/09:00am 22.9 22.7 18.4 76 2.9 ESE 17 24 9 13 1019.2 - -
15/08:30am 22.1 21.5 18.5 80 2.3 E 19 24 10 13 1019.2 - -
15/08:00am 21.6 20.9 18.2 81 2.2 E 19 24 10 13 1018.9 - -
15/07:30am 21.0 21.4 19.1 89 1.2 ESE 15 19 8 10 1018.6 - -
15/07:00am 20.2 21.0 19.0 93 0.8 ESE 13 17 7 9 1018.3 - -
15/06:30am 20.0 21.1 18.8 93 0.8 ESE 11 15 6 8 1018.2 - -
15/06:00am 20.2 21.4 19.0 93 0.8 E 11 15 6 8 1018.0 - -
15/05:30am 20.3 21.6 19.3 94 0.6 E 11 13 6 7 1017.7 - -
15/05:00am 20.3 22.5 19.6 96 0.5 E 7 11 4 6 1017.5 - -
15/04:30am 20.3 22.5 19.5 95 0.5 E 7 9 4 5 1017.3 - -
15/04:00am 20.5 22.7 19.5 94 0.6 E 7 9 4 5 1017.3 - -
15/03:30am 20.5 22.4 19.7 95 0.5 E 9 9 5 5 1017.3 - -
15/03:00am 20.7 22.0 19.4 92 0.8 E 11 15 6 8 1017.3 - 0.2
15/02:30am 20.9 22.7 19.6 92 0.8 ENE 9 11 5 6 1017.3 - -
15/02:00am 21.2 23.6 20.0 93 0.8 E 7 11 4 6 1017.2 - -
15/01:30am 21.2 23.6 20.0 93 0.8 ENE 7 7 4 4 1017.2 - -
15/01:00am 21.3 23.5 20.3 94 0.7 E 9 11 5 6 1017.1 - -
15/12:30am 21.2 23.4 20.4 95 0.5 ESE 9 11 5 6 1017.2 - -
15/12:00am 21.2 23.4 20.4 95 0.5 ESE 9 15 5 8 1017.2 - -
 
Date/Time
WST
Temp
°C
App
Temp
°C
Dew
Point
°C
Rel
Hum
%
Delta-T
°C
Wind Press
QNH
hPa
Press
MSL
hPa
Rain since
9am
mm
Dir  Spd
km/h
Gust
km/h
Spd
kts
Gust
kts
14/11:30pm 21.2 23.4 20.4 95 0.5 ESE 9 13 5 7 1017.6 - -
14/11:00pm 21.2 23.4 20.4 95 0.5 ESE 9 13 5 7 1017.8 - -
14/10:30pm 21.2 23.4 20.4 95 0.5 E 9 13 5 7 1018.0 - -
14/10:00pm 21.2 23.0 20.4 95 0.5 ESE 11 13 6 7 1018.1 - -
14/09:30pm 21.3 23.1 20.3 94 0.7 ESE 11 17 6 9 1018.3 - -
14/09:00pm 21.3 23.6 20.6 96 0.5 ESE 9 13 5 7 1018.5 - 7.0
14/08:30pm 21.4 22.9 20.6 95 0.5 E 13 17 7 9 1018.5 - -
14/08:20pm 21.3 22.4 20.5 95 0.5 E 15 19 8 10 1018.4 - -
14/08:00pm 21.4 22.8 20.4 94 0.7 NE 13 19 7 10 1018.5 - -
14/07:30pm 21.7 22.5 20.7 94 0.7 NE 17 26 9 14 1017.9 - -
14/07:00pm 22.0 22.2 20.5 91 1.0 ENE 20 26 11 14 1017.3 - -
14/06:30pm 22.4 24.9 21.0 92 0.9 NE 9 13 5 7 1016.6 - -
14/06:00pm 22.4 24.1 21.0 92 0.9 NE 13 19 7 10 1016.5 - -
14/05:30pm 22.7 23.7 21.0 90 1.1 NE 17 22 9 12 1015.7 - -
14/05:00pm 22.9 23.3 21.0 89 1.3 NE 20 26 11 14 1015.2 - -
14/04:30pm 25.2 26.2 21.1 78 2.8 ESE 17 20 9 11 1014.7 - -
14/04:00pm 25.9 28.4 21.8 78 2.8 ENE 11 17 6 9 1015.0 - -
14/03:30pm 25.9 28.6 21.3 76 3.1 E 9 13 5 7 1014.7 - -
14/03:00pm 26.1 29.4 20.7 72 3.6 SE 4 11 2 6 1014.9 - -
14/02:30pm 25.5 28.2 19.4 69 4.0 NW 4 9 2 5 1014.8 - -
14/02:00pm 24.1 26.4 20.6 81 2.3 NNE 9 17 5 9 1015.2 - -
14/12:00pm 26.7 29.3 20.5 69 4.1 ENE 7 15 4 8 1016.6 - 0.0
14/11:30am 26.3 29.0 20.6 71 3.8 ENE 7 15 4 8 1017.0 - 0.0
14/11:00am 25.9 28.3 20.9 74 3.3 ENE 9 17 5 9 1017.4 - 0.0
14/10:30am 25.4 27.6 20.4 74 3.3 NE 9 17 5 9 1017.8 - 0.0
14/10:00am 24.6 25.8 20.7 79 2.6 E 15 20 8 11 1017.8 - 0.0
14/09:30am 24.3 25.7 21.0 82 2.2 E 15 20 8 11 1017.6 - 0.0
14/09:00am 23.9 24.7 20.6 82 2.2 E 17 28 9 15 1017.6 - 21.6
14/08:30am 23.5 24.8 20.8 85 1.8 E 15 19 8 10 1017.4 - 21.6
14/08:00am 22.5 25.1 20.4 88 1.4 E 7 11 4 6 1017.1 - 21.6
14/07:30am 21.9 24.7 20.4 91 1.0 E 6 7 3 4 1016.9 - 21.6
14/07:00am 21.8 24.7 20.6 93 0.8 E 6 7 3 4 1016.3 - 21.6
14/06:30am 21.5 24.3 20.5 94 0.7 E 6 7 3 4 1015.9 - 21.6
14/06:00am 21.4 24.0 20.4 94 0.7 ESE 7 9 4 5 1015.5 - 21.6
14/05:30am 21.4 24.6 20.6 95 0.5 ESE 4 6 2 3 1015.5 - 21.6
14/05:00am 21.5 24.3 20.5 94 0.7 E 6 7 3 4 1015.2 - 21.6
14/04:30am 21.4 24.1 20.6 95 0.5 SE 7 9 4 5 1015.2 - 21.6
14/04:00am 21.4 24.1 20.6 95 0.5 E 7 9 4 5 1015.2 - 21.6
14/03:30am 21.5 24.2 20.3 93 0.8 ESE 6 6 3 3 1015.4 - 21.6
14/03:00am 21.6 24.3 20.6 94 0.7 E 7 9 4 5 1015.4 - 21.6
14/02:30am 21.6 24.5 20.6 94 0.7 ESE 6 7 3 4 1015.7 - 21.6
14/02:00am 21.6 24.0 20.8 95 0.5 E 9 9 5 5 1015.5 - 21.6
14/01:30am 21.7 24.7 20.9 95 0.5 E 6 7 3 4 1015.7 - 21.6
14/01:00am 21.6 24.9 20.8 95 0.5 ESE 4 6 2 3 1016.0 - 21.6
14/12:30am 21.6 24.5 20.6 94 0.7 E 6 9 3 5 1016.0 - 21.6
14/12:00am 21.5 24.3 20.5 94 0.7 SE 6 6 3 3 1016.3 - 21.6
 
Date/Time
WST
Temp
°C
App
Temp
°C
Dew
Point
°C
Rel
Hum
%
Delta-T
°C
Wind Press
QNH
hPa
Press
MSL
hPa
Rain since
9am
mm
Dir  Spd
km/h
Gust
km/h
Spd
kts
Gust
kts
13/11:30pm 21.6 24.2 20.4 93 0.8 ESE 7 9 4 5 1016.3 - 21.6
13/11:00pm 21.6 23.8 20.4 93 0.8 ENE 9 11 5 6 1016.5 - 21.6

Other formats

Comma delimited format used in spreadsheet applications
http://www.bom.gov.au/fwo/IDW60801/IDW60801.99593.axf

JavaScript Object Notation format (JSON) in row-major order
http://www.bom.gov.au/fwo/IDW60801/IDW60801.99593.json

Data quality

Most of these data are generated automatically and are frequently updated. Quality checks on data are not normally performed. It is possible for incorrect values to appear. Refer to information at About Latest Weather Observations and please check the disclaimer before using these data.